Time;durP1;ratioP1;P1;durP2;ratioP2;P2;SDS_P1;SDS_P2;PMS_P1;PMS_P2;Temp;Humidity;BMP_temperature;BMP_pressure;BME280_temperature;BME280_humidity;BME280_pressure;Samples;Min_cycle;Max_cycle;Signal;HPM_P1;HPM_P2
2022/05/05 00:00:33;;;;;;;15.82;13.95;;;14.50;99.90;;;;;;4893668;29;20156;-43
2022/05/05 00:02:59;;;;;;;18.88;14.23;;;14.50;99.90;;;;;;4892350;29;20396;-44
2022/05/05 00:05:24;;;;;;;16.35;14.63;;;14.50;99.90;;;;;;4893838;29;20040;-43
2022/05/05 00:07:49;;;;;;;14.85;13.20;;;14.40;99.90;;;;;;4893213;29;20550;-43
2022/05/05 00:15:44;;;;;;;16.88;13.07;;;14.10;99.90;;;;;;4893507;29;20059;-43
2022/05/05 00:18:11;;;;;;;18.98;14.18;;;14.10;99.90;;;;;;4907722;29;20098;-44
2022/05/05 00:20:36;;;;;;;16.00;12.82;;;14.10;99.90;;;;;;4893688;29;20029;-49
2022/05/05 00:23:02;;;;;;;15.00;13.32;;;14.10;99.90;;;;;;4893487;29;20036;-45
2022/05/05 00:25:27;;;;;;;14.52;12.88;;;14.10;99.90;;;;;;4893615;29;20496;-44
2022/05/05 00:27:53;;;;;;;14.98;13.02;;;14.10;99.90;;;;;;4892911;29;20512;-44
2022/05/05 00:30:18;;;;;;;19.52;12.73;;;14.10;99.90;;;;;;4893294;29;20036;-43
2022/05/05 00:32:44;;;;;;;17.40;13.85;;;14.10;99.90;;;;;;4893332;29;20476;-45
2022/05/05 00:35:09;;;;;;;17.33;13.38;;;14.10;99.90;;;;;;4895535;29;20037;-45
2022/05/05 00:37:35;;;;;;;16.65;14.02;;;14.20;99.90;;;;;;4895919;29;20029;-45
2022/05/05 00:40:00;;;;;;;20.17;14.18;;;14.20;99.90;;;;;;4896547;29;20060;-44
2022/05/05 00:42:26;;;;;;;16.10;14.38;;;14.20;99.90;;;;;;4896349;29;20028;-45
2022/05/05 00:44:52;;;;;;;14.80;13.15;;;14.20;99.90;;;;;;4896623;29;20028;-46
2022/05/05 00:47:19;;;;;;;15.85;13.95;;;14.20;99.90;;;;;;4896172;29;20028;-44
2022/05/05 00:49:49;;;;;;;16.75;14.57;;;14.20;99.90;;;;;;4896481;29;20029;-45
2022/05/05 00:52:14;;;;;;;16.58;13.45;;;14.10;99.90;;;;;;4896215;29;20067;-45
2022/05/05 00:54:40;;;;;;;16.40;13.98;;;14.10;99.90;;;;;;4896465;29;20025;-47
2022/05/05 00:57:06;;;;;;;20.98;15.00;;;14.00;99.90;;;;;;4894754;29;20555;-45
2022/05/05 00:59:33;;;;;;;15.93;13.73;;;14.00;99.90;;;;;;4896358;29;20035;-44
2022/05/05 01:01:58;;;;;;;23.27;14.90;;;13.90;99.90;;;;;;4896283;29;20484;-43
2022/05/05 01:04:25;;;;;;;16.33;13.90;;;13.90;99.90;;;;;;4896343;29;20040;-45
2022/05/05 01:06:50;;;;;;;18.17;13.77;;;13.90;99.90;;;;;;4895805;29;20025;-49
2022/05/05 01:09:16;;;;;;;16.30;14.60;;;13.90;99.90;;;;;;4896074;29;20040;-43
2022/05/05 01:11:41;;;;;;;17.85;15.52;;;14.00;99.90;;;;;;4896345;29;20036;-45
2022/05/05 01:14:07;;;;;;;15.52;13.93;;;14.00;99.90;;;;;;4896214;29;20031;-47
2022/05/05 01:16:33;;;;;;;20.13;14.38;;;14.00;99.90;;;;;;4895971;29;20032;-44
2022/05/05 01:18:58;;;;;;;20.85;15.07;;;14.00;99.90;;;;;;4895790;29;20554;-43
2022/05/05 01:21:24;;;;;;;16.88;15.18;;;14.00;99.90;;;;;;4895879;29;20393;-46
2022/05/05 01:23:49;;;;;;;18.73;16.80;;;14.00;99.90;;;;;;4896084;29;20039;-44
2022/05/05 01:29:00;;;;;;;20.08;17.92;;;14.00;99.90;;;;;;4895483;29;20047;-43
2022/05/05 01:31:26;;;;;;;21.63;17.67;;;14.10;99.90;;;;;;4895911;29;20021;-45
2022/05/05 01:33:51;;;;;;;21.02;16.63;;;14.10;99.90;;;;;;4895976;29;20095;-44
2022/05/05 01:36:17;;;;;;;19.08;16.20;;;14.10;99.90;;;;;;4895856;29;20104;-42
2022/05/05 01:38:44;;;;;;;20.10;17.40;;;14.00;99.90;;;;;;4895873;29;20039;-41
2022/05/05 01:41:14;;;;;;;17.30;15.60;;;14.00;99.90;;;;;;4896306;29;20024;-42
2022/05/05 01:43:42;;;;;;;16.25;14.55;;;14.00;99.90;;;;;;4896134;29;20032;-43
2022/05/05 01:46:08;;;;;;;17.10;15.23;;;14.00;99.90;;;;;;4895955;29;20025;-44
2022/05/05 01:48:34;;;;;;;18.42;15.43;;;14.10;99.90;;;;;;4895818;29;20040;-43
2022/05/05 01:51:00;;;;;;;18.73;16.45;;;14.00;99.90;;;;;;4896215;29;20036;-44
2022/05/05 01:53:25;;;;;;;18.17;16.35;;;14.00;99.90;;;;;;4896239;29;20029;-42
2022/05/05 01:55:51;;;;;;;17.65;15.80;;;14.00;99.90;;;;;;4896062;29;20079;-45
2022/05/05 01:58:17;;;;;;;17.60;15.73;;;14.00;99.90;;;;;;4895647;29;20459;-43
2022/05/05 02:00:43;;;;;;;20.08;16.40;;;14.00;99.90;;;;;;4896300;29;20068;-43
2022/05/05 02:03:14;;;;;;;20.38;16.08;;;14.00;99.90;;;;;;4895815;29;20120;-43
2022/05/05 02:05:42;;;;;;;19.83;16.83;;;14.00;99.90;;;;;;4910842;29;20107;-41
2022/05/05 02:08:08;;;;;;;21.27;17.30;;;14.10;99.90;;;;;;4895434;29;20071;-48
2022/05/05 02:10:33;;;;;;;21.63;17.83;;;14.10;99.90;;;;;;4895520;29;20124;-47
2022/05/05 02:12:59;;;;;;;21.70;17.33;;;14.20;99.90;;;;;;4895523;29;20139;-43
2022/05/05 02:15:24;;;;;;;19.65;17.65;;;14.10;99.90;;;;;;4895762;29;20508;-43
2022/05/05 02:17:51;;;;;;;20.45;18.38;;;14.20;99.90;;;;;;4895084;29;20023;-39
2022/05/05 02:20:17;;;;;;;21.10;18.80;;;14.30;99.90;;;;;;4895620;29;20511;-41
2022/05/05 02:22:42;;;;;;;22.83;19.00;;;14.30;99.90;;;;;;4895425;29;20040;-40
2022/05/05 02:25:08;;;;;;;20.75;18.65;;;14.30;99.90;;;;;;4895578;29;20068;-41
2022/05/05 02:27:47;;;;;;;22.90;19.15;;;14.30;99.90;;;;;;4894998;29;20063;-41
2022/05/05 02:30:13;;;;;;;21.80;19.08;;;14.30;99.90;;;;;;4909678;29;20036;-41
2022/05/05 02:32:38;;;;;;;27.23;19.35;;;14.10;99.90;;;;;;4895139;29;20021;-45
2022/05/05 02:35:04;;;;;;;22.60;19.48;;;14.00;99.90;;;;;;4895133;29;20059;-41
2022/05/05 02:40:14;;;;;;;22.77;18.63;;;13.90;99.90;;;;;;4895358;29;20095;-45
2022/05/05 02:42:39;;;;;;;20.25;17.90;;;13.90;99.90;;;;;;4894822;29;20029;-43
2022/05/05 02:45:05;;;;;;;25.08;17.73;;;13.90;99.90;;;;;;4894932;29;20124;-46
2022/05/05 02:47:31;;;;;;;20.77;18.33;;;13.90;99.90;;;;;;4894293;29;20032;-44
2022/05/05 02:49:56;;;;;;;22.27;19.17;;;13.90;99.90;;;;;;4894704;29;20367;-43
2022/05/05 02:52:22;;;;;;;20.42;18.33;;;13.90;99.90;;;;;;4894623;29;20017;-46
2022/05/05 02:54:47;;;;;;;20.58;17.88;;;13.90;99.90;;;;;;4894577;29;20083;-45
2022/05/05 02:57:20;;;;;;;19.95;17.70;;;13.90;99.90;;;;;;4893624;29;20368;-47
2022/05/05 02:59:47;;;;;;;23.55;18.65;;;13.90;99.90;;;;;;4894507;29;20112;-46
2022/05/05 03:02:13;;;;;;;22.52;18.83;;;13.90;99.90;;;;;;4908704;29;20029;-47
2022/05/05 03:04:38;;;;;;;19.90;17.33;;;13.90;99.90;;;;;;4894416;29;20032;-46
2022/05/05 03:07:04;;;;;;;20.10;17.67;;;13.90;99.90;;;;;;4894060;29;20467;-48
2022/05/05 03:09:30;;;;;;;21.67;18.02;;;13.90;99.90;;;;;;4894368;29;20071;-47
2022/05/05 03:11:55;;;;;;;20.40;17.30;;;13.90;99.90;;;;;;4894409;29;20047;-46
2022/05/05 03:14:21;;;;;;;19.73;17.77;;;13.90;99.90;;;;;;4894493;29;20393;-45
2022/05/05 03:16:46;;;;;;;19.83;17.77;;;13.90;99.90;;;;;;4893919;29;20033;-41
2022/05/05 03:19:12;;;;;;;18.75;16.80;;;14.00;99.90;;;;;;4894253;29;20240;-42
2022/05/05 03:21:37;;;;;;;19.63;17.63;;;13.90;99.90;;;;;;4894517;29;20029;-46
2022/05/05 03:24:04;;;;;;;22.10;19.02;;;13.90;99.90;;;;;;4894257;29;20452;-46
2022/05/05 03:26:29;;;;;;;20.55;18.48;;;13.90;99.90;;;;;;4894562;29;20480;-43
2022/05/05 03:28:56;;;;;;;21.23;18.55;;;13.90;99.90;;;;;;4893487;29;20047;-44
2022/05/05 03:31:21;;;;;;;22.58;20.13;;;13.90;99.90;;;;;;4892845;29;20492;-42
2022/05/05 03:33:47;;;;;;;22.20;19.85;;;13.80;99.90;;;;;;4894274;29;20083;-44
2022/05/05 03:36:12;;;;;;;21.52;19.20;;;13.80;99.90;;;;;;4894244;29;20075;-44
2022/05/05 03:38:38;;;;;;;19.02;17.05;;;13.70;99.90;;;;;;4894076;29;20492;-42
2022/05/05 03:41:05;;;;;;;21.88;18.98;;;13.70;99.90;;;;;;4894092;29;20071;-46
2022/05/05 03:43:31;;;;;;;24.20;20.05;;;13.70;99.90;;;;;;4894275;29;20021;-44
2022/05/05 03:45:57;;;;;;;20.95;18.80;;;13.80;99.90;;;;;;4893903;29;20480;-45
2022/05/05 03:48:22;;;;;;;25.65;20.80;;;13.80;99.90;;;;;;4893929;29;20111;-43
2022/05/05 03:50:48;;;;;;;23.55;21.10;;;13.80;99.90;;;;;;4894218;29;20037;-47
2022/05/05 03:53:13;;;;;;;22.40;20.02;;;13.80;99.90;;;;;;4894072;29;20028;-43
2022/05/05 03:55:39;;;;;;;20.70;18.58;;;13.80;99.90;;;;;;4894465;29;20021;-43
2022/05/05 03:58:04;;;;;;;21.88;19.55;;;13.80;99.90;;;;;;4894710;29;20052;-43
2022/05/05 04:00:30;;;;;;;20.67;18.23;;;13.80;99.90;;;;;;4894761;29;20028;-44
2022/05/05 04:05:39;;;;;;;32.70;21.67;;;13.80;99.90;;;;;;4895906;29;20036;-44
2022/05/05 04:08:05;;;;;;;23.90;20.88;;;13.80;99.90;;;;;;4894187;29;20480;-44
2022/05/05 04:10:31;;;;;;;24.27;21.55;;;13.80;99.90;;;;;;4897639;29;20052;-45
2022/05/05 04:12:57;;;;;;;24.15;21.65;;;13.80;99.90;;;;;;4897684;29;20104;-45
2022/05/05 04:15:23;;;;;;;23.75;20.35;;;13.80;99.90;;;;;;4897180;29;20097;-44
2022/05/05 04:17:49;;;;;;;24.45;21.88;;;13.80;99.90;;;;;;4896817;29;20031;-45
2022/05/05 04:20:15;;;;;;;26.33;22.25;;;13.80;99.90;;;;;;4897236;29;20028;-45
2022/05/05 04:22:41;;;;;;;30.40;21.38;;;13.80;99.90;;;;;;4897220;29;20035;-47
2022/05/05 04:25:07;;;;;;;24.27;21.75;;;13.80;99.90;;;;;;4897013;29;20087;-44
2022/05/05 04:27:33;;;;;;;21.95;19.58;;;13.80;99.90;;;;;;4897215;29;20094;-44
2022/05/05 04:30:00;;;;;;;22.67;20.33;;;13.80;99.90;;;;;;4897252;29;20037;-42
2022/05/05 04:32:25;;;;;;;23.30;20.92;;;13.90;99.90;;;;;;4911459;29;20078;-43
2022/05/05 04:34:51;;;;;;;23.85;21.33;;;13.80;99.90;;;;;;4896746;29;20024;-47
2022/05/05 04:37:16;;;;;;;24.55;21.90;;;13.80;99.90;;;;;;4896539;29;20032;-45
2022/05/05 04:39:42;;;;;;;24.58;21.90;;;13.70;99.90;;;;;;4895457;29;20029;-43
2022/05/05 04:42:08;;;;;;;28.33;22.90;;;13.70;99.90;;;;;;4896808;29;20036;-44
2022/05/05 04:44:34;;;;;;;24.55;22.05;;;13.60;99.90;;;;;;4896639;29;20024;-46
2022/05/05 04:47:00;;;;;;;26.88;22.48;;;13.60;99.90;;;;;;4896506;29;20036;-44
2022/05/05 04:49:25;;;;;;;25.35;22.75;;;13.60;99.90;;;;;;4896437;29;20095;-40
2022/05/05 04:51:51;;;;;;;26.25;23.50;;;13.60;99.90;;;;;;4896553;29;20028;-47
2022/05/05 04:54:17;;;;;;;25.02;22.48;;;13.60;99.90;;;;;;4895082;29;20397;-44
2022/05/05 04:56:43;;;;;;;23.63;20.88;;;13.70;99.90;;;;;;4896260;29;20051;-46
2022/05/05 04:59:08;;;;;;;23.98;21.42;;;13.60;99.90;;;;;;4894691;29;20523;-47
2022/05/05 05:01:34;;;;;;;30.45;21.02;;;13.50;99.90;;;;;;4896381;29;20028;-44
2022/05/05 05:04:02;;;;;;;24.10;21.55;;;13.50;99.90;;;;;;4896287;29;20396;-45
2022/05/05 05:06:28;;;;;;;23.30;20.83;;;13.40;99.90;;;;;;4896059;29;20032;-45
2022/05/05 05:08:54;;;;;;;25.25;21.77;;;13.40;99.90;;;;;;4895754;29;20535;-44
2022/05/05 05:11:20;;;;;;;21.75;19.55;;;13.50;99.90;;;;;;4910727;29;20052;-45
2022/05/05 05:13:45;;;;;;;22.67;20.27;;;13.50;99.90;;;;;;4896139;29;20433;-45
2022/05/05 05:16:11;;;;;;;25.70;22.80;;;13.60;99.90;;;;;;4895998;29;20029;-46
2022/05/05 05:18:36;;;;;;;23.80;21.30;;;13.60;99.90;;;;;;4895677;29;20079;-47
2022/05/05 05:21:02;;;;;;;25.77;22.85;;;13.60;99.90;;;;;;4895295;29;20037;-43
2022/05/05 05:23:27;;;;;;;27.83;22.95;;;13.60;99.90;;;;;;4896075;29;20256;-45
2022/05/05 05:25:53;;;;;;;25.45;21.70;;;13.60;99.90;;;;;;4895859;29;20048;-44
2022/05/05 05:28:18;;;;;;;25.88;21.50;;;13.60;99.90;;;;;;4940779;23;20051;-44
2022/05/05 05:30:44;;;;;;;26.13;23.33;;;13.60;99.90;;;;;;4975086;28;20109;-41
2022/05/05 05:33:09;;;;;;;25.35;22.40;;;13.50;99.90;;;;;;4975193;28;20050;-41
2022/05/05 05:35:35;;;;;;;28.92;21.58;;;13.50;99.90;;;;;;4974984;28;20517;-42
2022/05/05 05:38:01;;;;;;;25.85;23.05;;;13.60;99.90;;;;;;4974632;28;20106;-40
2022/05/05 05:40:26;;;;;;;28.23;22.85;;;13.60;99.90;;;;;;4974945;28;20027;-41
2022/05/05 05:42:52;;;;;;;24.65;20.77;;;13.60;99.90;;;;;;4975160;28;20034;-42
2022/05/05 05:45:18;;;;;;;26.98;22.10;;;13.50;99.90;;;;;;4975104;28;20439;-42
2022/05/05 05:47:44;;;;;;;22.25;19.95;;;13.50;99.90;;;;;;4973984;28;20035;-40
2022/05/05 05:50:10;;;;;;;24.45;22.00;;;13.50;99.90;;;;;;4985697;28;20483;-42
2022/05/05 05:52:36;;;;;;;23.95;21.55;;;13.60;99.90;;;;;;4994144;28;20035;-42
2022/05/05 05:55:01;;;;;;;22.52;19.98;;;13.60;99.90;;;;;;4991382;28;20035;-41
2022/05/05 05:57:28;;;;;;;22.13;17.90;;;13.70;99.90;;;;;;4971764;28;20570;-42
2022/05/05 05:59:54;;;;;;;18.13;16.33;;;13.70;99.90;;;;;;4978994;28;20395;-42
2022/05/05 06:05:06;;;;;;;19.58;15.32;;;13.60;99.90;;;;;;4974484;28;20093;-41
2022/05/05 06:07:31;;;;;;;18.25;14.45;;;13.60;99.90;;;;;;4973842;28;20027;-41
2022/05/05 06:09:57;;;;;;;16.90;15.20;;;13.60;99.90;;;;;;4974298;28;20483;-42
2022/05/05 06:12:22;;;;;;;16.08;14.02;;;13.60;99.90;;;;;;4974204;28;20030;-42
2022/05/05 06:14:48;;;;;;;17.17;14.85;;;13.60;99.90;;;;;;4987619;28;20049;-43
2022/05/05 06:17:13;;;;;;;23.60;14.50;;;13.70;99.90;;;;;;4973329;28;20026;-41
2022/05/05 06:19:39;;;;;;;21.45;14.68;;;13.70;99.90;;;;;;4985348;28;20033;-44
2022/05/05 06:22:04;;;;;;;16.55;12.98;;;13.70;99.90;;;;;;4974142;28;20122;-42
2022/05/05 06:24:30;;;;;;;19.27;13.40;;;13.70;99.90;;;;;;4973476;28;20035;-41
2022/05/05 06:26:55;;;;;;;18.85;14.10;;;13.70;99.90;;;;;;4979153;28;20035;-40
2022/05/05 06:29:21;;;;;;;19.08;15.40;;;13.70;99.90;;;;;;4973682;28;20110;-41
2022/05/05 06:31:47;;;;;;;18.75;13.18;;;13.80;99.90;;;;;;4973412;28;20313;-41
2022/05/05 06:34:12;;;;;;;19.73;13.38;;;13.70;99.90;;;;;;4974207;28;20458;-40
2022/05/05 06:36:38;;;;;;;16.65;13.25;;;13.70;99.90;;;;;;4973886;28;20030;-40
2022/05/05 06:39:03;;;;;;;16.67;12.13;;;13.60;99.90;;;;;;4972371;28;20027;-43
2022/05/05 06:41:29;;;;;;;14.55;12.57;;;13.70;99.90;;;;;;4973949;28;20015;-40
2022/05/05 06:43:55;;;;;;;16.90;14.07;;;13.70;99.90;;;;;;4973768;28;20101;-41
2022/05/05 06:46:21;;;;;;;17.13;13.63;;;13.70;99.90;;;;;;4973701;28;20030;-41
2022/05/05 06:48:46;;;;;;;21.90;14.45;;;13.70;99.90;;;;;;4968903;28;20030;-44
2022/05/05 06:51:12;;;;;;;16.27;13.65;;;13.70;99.90;;;;;;4981766;28;20642;-42
2022/05/05 06:53:37;;;;;;;22.77;14.02;;;13.70;99.90;;;;;;4976418;28;20030;-40
2022/05/05 06:56:03;;;;;;;17.50;12.65;;;13.70;99.90;;;;;;4973791;28;20133;-40
2022/05/05 06:58:29;;;;;;;19.73;13.82;;;13.70;99.90;;;;;;4973121;28;20041;-41
2022/05/05 07:03:38;;;;;;;20.92;14.27;;;13.80;99.90;;;;;;4973312;28;20038;-42
2022/05/05 07:06:05;;;;;;;19.50;14.73;;;13.80;99.90;;;;;;4973654;28;20023;-40
2022/05/05 07:10:52;;;;;;;21.08;15.00;;;13.80;99.90;;;;;;4954059;29;20031;-40
2022/05/05 07:11:19;;;;;;;19.75;13.68;;;13.90;99.90;;;;;;4954343;28;20035;-41
2022/05/05 07:13:45;;;;;;;18.75;14.88;;;13.90;99.90;;;;;;4954214;28;20038;-41
2022/05/05 07:16:11;;;;;;;18.42;15.02;;;13.90;99.90;;;;;;4954177;28;20051;-41
2022/05/05 07:18:37;;;;;;;18.08;14.27;;;13.90;99.90;;;;;;4967001;28;20073;-41
2022/05/05 07:21:02;;;;;;;20.80;15.40;;;14.00;99.90;;;;;;4967006;28;20027;-41
2022/05/05 07:23:28;;;;;;;19.33;14.95;;;13.90;99.90;;;;;;4972401;28;20034;-44
2022/05/05 07:25:54;;;;;;;21.75;15.52;;;13.90;99.90;;;;;;4972665;28;20030;-42
2022/05/05 07:28:19;;;;;;;19.73;15.15;;;13.90;99.90;;;;;;4979630;28;20081;-43
2022/05/05 07:30:45;;;;;;;20.30;15.50;;;13.90;99.90;;;;;;4992451;28;20034;-43
2022/05/05 07:33:10;;;;;;;22.30;15.80;;;13.90;99.90;;;;;;4979039;28;20025;-43
2022/05/05 07:35:39;;;;;;;20.30;15.68;;;13.90;99.90;;;;;;4972972;28;20023;-42
2022/05/05 07:38:05;;;;;;;21.70;16.88;;;13.90;99.90;;;;;;4972574;28;20503;-46
2022/05/05 07:40:31;;;;;;;25.38;17.52;;;13.90;99.90;;;;;;4973001;28;20066;-45
2022/05/05 07:42:56;;;;;;;28.17;17.92;;;13.90;99.90;;;;;;4972807;28;20462;-43
2022/05/05 07:45:22;;;;;;;21.73;17.35;;;13.90;99.90;;;;;;4986490;28;20053;-49
2022/05/05 07:47:49;;;;;;;23.15;17.55;;;13.90;99.90;;;;;;4981451;28;20422;-40
2022/05/05 07:50:15;;;;;;;22.40;16.80;;;13.90;99.90;;;;;;4972771;28;20027;-43
2022/05/05 07:52:40;;;;;;;28.42;18.30;;;13.90;99.90;;;;;;4972910;28;20029;-43
2022/05/05 07:55:07;;;;;;;29.65;18.05;;;13.90;99.90;;;;;;4972937;28;20031;-42
2022/05/05 07:57:41;;;;;;;22.25;17.05;;;13.90;99.90;;;;;;4972368;28;20034;-44
2022/05/05 08:00:07;;;;;;;32.55;19.83;;;13.90;99.90;;;;;;4973031;28;20033;-42
2022/05/05 08:02:35;;;;;;;29.35;19.23;;;13.80;99.90;;;;;;4972279;28;20042;-43
2022/05/05 08:05:00;;;;;;;42.03;28.83;;;13.70;99.90;;;;;;4973226;28;20037;-43
2022/05/05 08:07:26;;;;;;;42.40;30.40;;;13.70;99.90;;;;;;4972680;28;20097;-43
2022/05/05 08:09:51;;;;;;;67.50;41.78;;;13.70;99.90;;;;;;4972748;28;20062;-47
2022/05/05 08:12:17;;;;;;;31.48;22.75;;;13.70;99.90;;;;;;4972887;28;20023;-42
2022/05/05 08:14:42;;;;;;;25.85;19.83;;;13.70;99.90;;;;;;4972954;28;20107;-42
2022/05/05 08:17:08;;;;;;;24.58;18.38;;;13.70;99.90;;;;;;4972760;28;20019;-43
2022/05/05 08:19:34;;;;;;;26.38;19.13;;;13.70;99.90;;;;;;4973141;28;20480;-42
2022/05/05 08:21:59;;;;;;;23.20;19.13;;;13.70;99.90;;;;;;4973122;28;20074;-43
2022/05/05 08:29:53;;;;;;;28.50;19.27;;;13.70;99.90;;;;;;4971881;28;20142;-42
2022/05/05 08:32:19;;;;;;;24.98;19.50;;;13.70;99.90;;;;;;4972323;28;20502;-43
2022/05/05 08:34:44;;;;;;;23.85;18.73;;;13.70;99.90;;;;;;4972526;28;20029;-43
2022/05/05 08:37:10;;;;;;;23.92;19.38;;;13.70;99.90;;;;;;4972130;28;20041;-44
2022/05/05 08:39:36;;;;;;;26.40;19.83;;;13.80;99.90;;;;;;4972310;28;20039;-42
2022/05/05 08:42:04;;;;;;;23.15;17.98;;;13.80;99.90;;;;;;4971608;28;20035;-44
2022/05/05 08:44:29;;;;;;;21.75;18.23;;;13.80;99.90;;;;;;4972656;28;20066;-44
2022/05/05 08:46:56;;;;;;;24.85;18.55;;;13.90;99.90;;;;;;4972479;28;20031;-43
2022/05/05 08:49:25;;;;;;;23.65;18.63;;;13.90;99.90;;;;;;4973359;28;20035;-41
2022/05/05 08:51:52;;;;;;;25.00;17.73;;;13.90;99.90;;;;;;4989477;28;20026;-45
2022/05/05 08:54:21;;;;;;;24.70;16.75;;;13.90;99.90;;;;;;4988592;28;20026;-45
2022/05/05 08:56:50;;;;;;;24.30;17.55;;;14.00;99.90;;;;;;4974698;28;20026;-44
2022/05/05 08:59:18;;;;;;;21.10;17.45;;;14.00;99.90;;;;;;4975956;28;20398;-43
2022/05/05 09:01:44;;;;;;;26.40;17.08;;;14.10;99.90;;;;;;4976072;28;20061;-44
2022/05/05 09:04:10;;;;;;;19.88;16.05;;;14.10;99.90;;;;;;4975611;28;20031;-41
2022/05/05 09:06:51;;;;;;;23.10;16.90;;;14.20;99.90;;;;;;4982838;28;20030;-44
2022/05/05 09:09:27;;;;;;;22.27;17.60;;;14.30;99.90;;;;;;4995374;28;20529;-45
2022/05/05 09:12:15;;;;;;;21.35;16.55;;;14.30;99.90;;;;;;4976519;28;20027;-45
2022/05/05 09:14:52;;;;;;;20.20;17.48;;;14.30;99.90;;;;;;4972646;28;20027;-46
2022/05/05 09:17:20;;;;;;;26.48;19.77;;;14.40;99.90;;;;;;4993339;28;20018;-44
2022/05/05 09:19:47;;;;;;;22.23;17.65;;;14.50;99.90;;;;;;4989285;28;20074;-47
2022/05/05 09:22:16;;;;;;;24.23;16.88;;;14.50;99.90;;;;;;4975679;28;20105;-44
2022/05/05 09:24:44;;;;;;;23.00;15.63;;;14.40;99.90;;;;;;4975416;28;20118;-47
2022/05/05 09:27:16;;;;;;;24.63;18.80;;;14.40;99.90;;;;;;4975088;28;20149;-44
2022/05/05 09:29:42;;;;;;;19.25;16.52;;;14.50;99.90;;;;;;4974131;28;20038;-45
2022/05/05 09:32:12;;;;;;;18.10;15.27;;;14.50;99.90;;;;;;4992062;28;20105;-44
2022/05/05 09:34:41;;;;;;;23.70;16.23;;;14.50;99.90;;;;;;4988613;28;20019;-46
2022/05/05 09:37:19;;;;;;;27.98;18.40;;;14.50;99.90;;;;;;4974809;28;20023;-47
2022/05/05 09:39:45;;;;;;;23.42;16.08;;;14.50;99.90;;;;;;4974936;28;20483;-43
2022/05/05 09:42:10;;;;;;;19.17;15.00;;;14.50;99.90;;;;;;4974889;28;20066;-46
2022/05/05 09:44:46;;;;;;;18.85;15.73;;;14.60;99.90;;;;;;4975145;28;20046;-48
2022/05/05 09:47:19;;;;;;;22.88;17.58;;;14.60;99.90;;;;;;4983610;28;20034;-44
2022/05/05 09:49:57;;;;;;;18.08;14.43;;;14.60;99.90;;;;;;4995017;28;20056;-43
2022/05/05 09:57:56;;;;;;;24.85;12.93;;;14.50;99.90;;;;;;4975924;28;20081;-48
2022/05/05 10:05:51;;;;;;;18.98;11.80;;;14.70;99.90;;;;;;4986129;28;20061;-47
2022/05/05 10:08:22;;;;;;;18.90;12.15;;;14.80;99.90;;;;;;4974239;28;20093;-44
2022/05/05 10:10:48;;;;;;;17.33;10.57;;;14.70;99.90;;;;;;4973886;28;20019;-43
2022/05/05 10:13:17;;;;;;;16.50;11.65;;;14.80;99.90;;;;;;4976815;28;20030;-47
2022/05/05 10:15:43;;;;;;;23.65;11.48;;;14.90;99.90;;;;;;4972503;28;20062;-42
2022/05/05 10:18:12;;;;;;;14.93;11.20;;;14.90;99.90;;;;;;4975209;28;20498;-43
2022/05/05 10:20:37;;;;;;;16.20;11.38;;;15.00;99.90;;;;;;4974487;28;20398;-43
2022/05/05 10:23:16;;;;;;;15.55;11.13;;;15.10;99.90;;;;;;4980424;28;20038;-45
2022/05/05 10:25:42;;;;;;;18.25;10.43;;;15.10;99.90;;;;;;4972305;28;20027;-47
2022/05/05 10:28:39;;;;;;;16.40;10.20;;;15.50;99.90;;;;;;4978235;28;20418;-46
2022/05/05 10:31:13;;;;;;;17.65;10.73;;;15.70;99.90;;;;;;4993482;28;20030;-48
2022/05/05 10:34:01;;;;;;;71.03;40.20;;;16.00;99.90;;;;;;4982068;28;20046;-48
2022/05/05 10:36:28;;;;;;;21.33;11.50;;;16.00;99.90;;;;;;4978364;28;20055;-45
2022/05/05 10:38:55;;;;;;;12.40;9.43;;;16.00;99.90;;;;;;4985277;28;20109;-46
2022/05/05 10:41:40;;;;;;;14.93;10.25;;;16.10;99.90;;;;;;4993130;28;20093;-53
2022/05/05 10:44:18;;;;;;;17.73;9.38;;;16.30;99.90;;;;;;4969877;28;20517;-54
2022/05/05 10:47:03;;;;;;;14.85;9.45;;;16.40;99.90;;;;;;4972180;28;20030;-52
2022/05/05 10:49:37;;;;;;;18.20;10.38;;;16.30;99.90;;;;;;4970464;28;20029;-48
2022/05/05 10:52:09;;;;;;;18.50;9.38;;;16.20;99.90;;;;;;4979321;28;20054;-47
2022/05/05 10:54:36;;;;;;;16.55;9.80;;;16.20;99.90;;;;;;4975393;28;20021;-48
2022/05/05 10:57:26;;;;;;;14.38;9.52;;;16.30;99.90;;;;;;4992471;28;20102;-48
2022/05/05 11:00:13;;;;;;;15.65;9.35;;;16.20;99.90;;;;;;4987999;28;20027;-48
2022/05/05 11:03:01;;;;;;;14.07;9.63;;;16.00;99.90;;;;;;4980146;28;20035;-49
2022/05/05 11:05:28;;;;;;;19.52;10.38;;;16.00;99.90;;;;;;4953707;29;20487;-52
2022/05/05 11:08:20;;;;;;;18.88;9.77;;;16.30;99.90;;;;;;4953554;28;20019;-48
2022/05/05 11:10:47;;;;;;;14.85;8.82;;;16.40;99.90;;;;;;4955378;28;20125;-50
2022/05/05 11:13:37;;;;;;;17.02;10.05;;;16.50;99.90;;;;;;4972444;28;20035;-53
2022/05/05 11:22:24;;;;;;;21.70;9.48;;;16.90;99.90;;;;;;4972690;28;20033;-49
2022/05/05 11:24:52;;;;;;;15.38;9.82;;;17.00;99.90;;;;;;4954030;28;20054;-50
2022/05/05 11:27:22;;;;;;;16.90;10.57;;;17.10;99.50;;;;;;4972355;28;20042;-52
2022/05/05 11:29:56;;;;;;;25.63;10.20;;;17.10;99.60;;;;;;4975264;28;20069;-52
2022/05/05 11:32:31;;;;;;;16.25;8.95;;;17.00;99.50;;;;;;4972814;28;20038;-49
2022/05/05 11:34:57;;;;;;;17.02;10.18;;;17.10;99.90;;;;;;4972866;28;20025;-49
2022/05/05 11:37:26;;;;;;;19.20;9.70;;;17.30;99.30;;;;;;4971660;28;20026;-53
2022/05/05 11:39:52;;;;;;;18.60;11.32;;;17.30;99.40;;;;;;4972462;28;20108;-49
2022/05/05 11:42:18;;;;;;;22.02;11.05;;;17.40;99.30;;;;;;4987587;28;20027;-52
2022/05/05 11:44:45;;;;;;;17.15;10.43;;;17.40;99.20;;;;;;4985590;28;20038;-55
2022/05/05 11:47:23;;;;;;;30.25;9.98;;;17.40;99.50;;;;;;4987246;28;20026;-47
2022/05/05 11:49:54;;;;;;;18.85;9.80;;;17.50;98.80;;;;;;4970608;28;20545;-47
2022/05/05 11:52:22;;;;;;;14.63;9.80;;;17.50;98.30;;;;;;4985875;28;20034;-52
2022/05/05 11:54:49;;;;;;;17.13;9.02;;;17.50;98.30;;;;;;4971358;28;20395;-46
2022/05/05 11:57:38;;;;;;;37.38;24.27;;;17.40;98.80;;;;;;4986241;28;20027;-49
2022/05/05 12:02:51;;;;;;;14.48;7.88;;;17.60;97.40;;;;;;4958319;28;20592;-48
2022/05/05 12:05:18;;;;;;;12.05;8.43;;;17.70;96.50;;;;;;4987740;28;20125;-45
2022/05/05 12:07:44;;;;;;;17.90;9.75;;;17.60;96.40;;;;;;4972127;28;20031;-45
2022/05/05 12:10:14;;;;;;;18.75;9.40;;;17.60;97.00;;;;;;4973053;28;20035;-46
2022/05/05 12:12:49;;;;;;;18.20;9.27;;;17.60;97.40;;;;;;4987307;28;20541;-45
2022/05/05 12:15:21;;;;;;;;;;;17.40;97.00;;;;;;4983517;28;20031;-50
2022/05/05 12:17:50;;;;;;;22.33;9.88;;;17.20;98.30;;;;;;4986979;28;20012;-48
2022/05/05 12:20:18;;;;;;;26.35;9.25;;;17.30;98.80;;;;;;4987335;28;20023;-51
2022/05/05 12:22:52;;;;;;;13.20;8.20;;;17.30;97.50;;;;;;4987396;28;20029;-48
2022/05/05 12:25:17;;;;;;;14.18;7.90;;;17.40;97.40;;;;;;4971231;28;20114;-49
2022/05/05 12:28:04;;;;;;;14.93;8.32;;;17.50;97.30;;;;;;4970613;28;20118;-47
2022/05/05 12:30:39;;;;;;;15.85;9.38;;;17.70;97.80;;;;;;4971919;28;20494;-47
2022/05/05 12:33:07;;;;;;;16.23;8.32;;;17.70;96.40;;;;;;4974950;28;20023;-50
2022/05/05 12:35:35;;;;;;;12.75;7.22;;;17.80;96.20;;;;;;4975008;28;20082;-50
2022/05/05 12:38:02;;;;;;;14.50;8.48;;;17.70;95.80;;;;;;4975280;28;20060;-54
2022/05/05 12:40:28;;;;;;;13.65;8.35;;;17.60;96.20;;;;;;4975679;28;20026;-55
2022/05/05 12:43:06;;;;;;;16.17;7.95;;;17.60;95.40;;;;;;4976132;28;20022;-49
2022/05/05 12:45:33;;;;;;;13.60;7.35;;;17.60;95.60;;;;;;4975624;28;20033;-50
2022/05/05 12:48:00;;;;;;;13.77;7.78;;;17.70;96.40;;;;;;4975470;28;20027;-54
2022/05/05 12:50:28;;;;;;;13.32;8.27;;;17.60;95.70;;;;;;4976555;28;20027;-49
2022/05/05 13:01:06;;;;;;;10.40;5.82;;;17.50;96.60;;;;;;4933374;23;20126;-47
2022/05/05 13:03:32;;;;;;;56.72;37.85;;;17.70;95.70;;;;;;4876038;29;20025;-48
2022/05/05 13:05:58;;;;;;;188.30;131.45;;;17.70;96.10;;;;;;4876093;29;20223;-48
2022/05/05 13:08:24;;;;;;;14.80;8.60;;;17.80;95.50;;;;;;4877011;29;20029;-40
2022/05/05 13:10:49;;;;;;;10.95;6.60;;;17.70;95.00;;;;;;4875900;29;20510;-44
2022/05/05 13:13:15;;;;;;;14.10;6.57;;;17.70;95.50;;;;;;4891344;29;20026;-52
2022/05/05 13:15:41;;;;;;;11.40;6.10;;;17.70;94.20;;;;;;4877386;29;20508;-47
2022/05/05 13:18:07;;;;;;;8.80;5.00;;;17.60;94.50;;;;;;4891723;29;20025;-46
2022/05/05 13:20:33;;;;;;;6.70;4.95;;;17.40;92.90;;;;;;4892171;29;20496;-50
2022/05/05 13:23:00;;;;;;;14.00;5.20;;;17.30;93.50;;;;;;4891798;29;20039;-42